sensor_id;sensor_type;location;lat;lon;timestamp;P1;durP1;ratioP1;P2;durP2;ratioP2
46282;SDS011;32017;43.700;11.820;2022-10-16T00:01:41;6.05;;;5.72;;
46282;SDS011;32017;43.700;11.820;2022-10-16T00:04:02;7.20;;;6.75;;
46282;SDS011;32017;43.700;11.820;2022-10-16T00:06:22;5.57;;;5.07;;
46282;SDS011;32017;43.700;11.820;2022-10-16T00:08:45;5.90;;;5.38;;
46282;SDS011;32017;43.700;11.820;2022-10-16T00:11:16;5.65;;;5.35;;
46282;SDS011;32017;43.700;11.820;2022-10-16T00:13:48;5.53;;;5.32;;
46282;SDS011;32017;43.700;11.820;2022-10-16T00:16:12;5.93;;;5.47;;
46282;SDS011;32017;43.700;11.820;2022-10-16T00:18:33;7.82;;;7.47;;
46282;SDS011;32017;43.700;11.820;2022-10-16T00:20:54;6.50;;;6.25;;
46282;SDS011;32017;43.700;11.820;2022-10-16T00:23:20;7.85;;;7.55;;
46282;SDS011;32017;43.700;11.820;2022-10-16T00:25:41;7.68;;;7.07;;
46282;SDS011;32017;43.700;11.820;2022-10-16T00:28:02;6.20;;;6.00;;
46282;SDS011;32017;43.700;11.820;2022-10-16T00:30:22;8.10;;;7.40;;
46282;SDS011;32017;43.700;11.820;2022-10-16T00:32:43;7.50;;;7.03;;
46282;SDS011;32017;43.700;11.820;2022-10-16T00:35:03;6.95;;;6.28;;
46282;SDS011;32017;43.700;11.820;2022-10-16T00:37:24;5.88;;;5.47;;
46282;SDS011;32017;43.700;11.820;2022-10-16T00:39:45;6.63;;;6.03;;
46282;SDS011;32017;43.700;11.820;2022-10-16T00:42:06;5.88;;;5.57;;
46282;SDS011;32017;43.700;11.820;2022-10-16T00:44:44;6.38;;;5.93;;
46282;SDS011;32017;43.700;11.820;2022-10-16T00:47:11;5.90;;;5.35;;
46282;SDS011;32017;43.700;11.820;2022-10-16T00:49:36;5.78;;;5.47;;
46282;SDS011;32017;43.700;11.820;2022-10-16T00:51:57;7.65;;;6.93;;
46282;SDS011;32017;43.700;11.820;2022-10-16T00:54:19;6.80;;;6.50;;
46282;SDS011;32017;43.700;11.820;2022-10-16T00:56:45;7.10;;;6.68;;
46282;SDS011;32017;43.700;11.820;2022-10-16T00:59:07;6.43;;;5.60;;
46282;SDS011;32017;43.700;11.820;2022-10-16T01:01:36;6.30;;;5.95;;
46282;SDS011;32017;43.700;11.820;2022-10-16T01:03:57;7.15;;;6.70;;
46282;SDS011;32017;43.700;11.820;2022-10-16T01:06:26;6.30;;;6.10;;
46282;SDS011;32017;43.700;11.820;2022-10-16T01:09:20;6.22;;;5.93;;
46282;SDS011;32017;43.700;11.820;2022-10-16T01:17:01;5.93;;;5.72;;
46282;SDS011;32017;43.700;11.820;2022-10-16T01:19:33;6.78;;;6.45;;
46282;SDS011;32017;43.700;11.820;2022-10-16T01:22:14;6.60;;;6.30;;
46282;SDS011;32017;43.700;11.820;2022-10-16T01:24:39;6.85;;;6.53;;
46282;SDS011;32017;43.700;11.820;2022-10-16T01:27:13;6.82;;;6.40;;
46282;SDS011;32017;43.700;11.820;2022-10-16T01:29:54;7.13;;;6.60;;
46282;SDS011;32017;43.700;11.820;2022-10-16T01:38:04;6.00;;;5.65;;
46282;SDS011;32017;43.700;11.820;2022-10-16T01:40:32;7.18;;;6.80;;
46282;SDS011;32017;43.700;11.820;2022-10-16T01:43:05;8.27;;;6.72;;
46282;SDS011;32017;43.700;11.820;2022-10-16T01:45:32;8.10;;;7.40;;
46282;SDS011;32017;43.700;11.820;2022-10-16T01:47:54;7.53;;;7.13;;
46282;SDS011;32017;43.700;11.820;2022-10-16T01:50:16;8.45;;;7.95;;
46282;SDS011;32017;43.700;11.820;2022-10-16T01:52:40;8.98;;;8.25;;
46282;SDS011;32017;43.700;11.820;2022-10-16T01:55:04;9.10;;;8.15;;
46282;SDS011;32017;43.700;11.820;2022-10-16T01:57:28;9.05;;;8.30;;
46282;SDS011;32017;43.700;11.820;2022-10-16T01:59:52;13.82;;;8.57;;
46282;SDS011;32017;43.700;11.820;2022-10-16T02:02:17;10.57;;;9.63;;
46282;SDS011;32017;43.700;11.820;2022-10-16T02:07:02;6.13;;;5.68;;
46282;SDS011;32017;43.700;11.820;2022-10-16T02:09:23;5.60;;;5.25;;
46282;SDS011;32017;43.700;11.820;2022-10-16T02:11:43;6.50;;;6.05;;
46282;SDS011;32017;43.700;11.820;2022-10-16T02:14:05;34.63;;;7.50;;
46282;SDS011;32017;43.700;11.820;2022-10-16T02:16:40;41.17;;;8.48;;
46282;SDS011;32017;43.700;11.820;2022-10-16T02:19:05;111.65;;;10.35;;
46282;SDS011;32017;43.700;11.820;2022-10-16T02:21:27;82.10;;;8.63;;
46282;SDS011;32017;43.700;11.820;2022-10-16T02:24:03;64.30;;;7.47;;
46282;SDS011;32017;43.700;11.820;2022-10-16T02:26:49;69.90;;;9.32;;
46282;SDS011;32017;43.700;11.820;2022-10-16T02:29:11;7.05;;;6.85;;
46282;SDS011;32017;43.700;11.820;2022-10-16T02:31:35;6.55;;;6.45;;
46282;SDS011;32017;43.700;11.820;2022-10-16T02:33:58;59.63;;;8.95;;
46282;SDS011;32017;43.700;11.820;2022-10-16T02:36:20;8.43;;;8.10;;
46282;SDS011;32017;43.700;11.820;2022-10-16T02:38:41;42.33;;;8.65;;
46282;SDS011;32017;43.700;11.820;2022-10-16T02:41:02;8.57;;;7.60;;
46282;SDS011;32017;43.700;11.820;2022-10-16T02:43:24;8.30;;;7.68;;
46282;SDS011;32017;43.700;11.820;2022-10-16T02:45:46;10.77;;;7.15;;
46282;SDS011;32017;43.700;11.820;2022-10-16T02:48:07;10.05;;;8.05;;
46282;SDS011;32017;43.700;11.820;2022-10-16T02:50:27;7.13;;;6.72;;
46282;SDS011;32017;43.700;11.820;2022-10-16T02:52:48;9.55;;;7.38;;
46282;SDS011;32017;43.700;11.820;2022-10-16T02:55:08;17.95;;;7.65;;
46282;SDS011;32017;43.700;11.820;2022-10-16T02:57:29;9.65;;;6.85;;
46282;SDS011;32017;43.700;11.820;2022-10-16T02:59:50;6.80;;;6.55;;
46282;SDS011;32017;43.700;11.820;2022-10-16T03:02:11;80.10;;;7.95;;
46282;SDS011;32017;43.700;11.820;2022-10-16T03:04:32;58.90;;;7.57;;
46282;SDS011;32017;43.700;11.820;2022-10-16T03:06:52;9.70;;;6.72;;
46282;SDS011;32017;43.700;11.820;2022-10-16T03:09:13;43.55;;;7.05;;
46282;SDS011;32017;43.700;11.820;2022-10-16T03:11:34;56.85;;;7.85;;
46282;SDS011;32017;43.700;11.820;2022-10-16T03:13:54;11.10;;;7.00;;
46282;SDS011;32017;43.700;11.820;2022-10-16T03:16:15;8.07;;;7.60;;
46282;SDS011;32017;43.700;11.820;2022-10-16T03:18:36;9.85;;;8.38;;
46282;SDS011;32017;43.700;11.820;2022-10-16T03:20:57;106.50;;;10.25;;
46282;SDS011;32017;43.700;11.820;2022-10-16T03:23:18;76.18;;;9.90;;
46282;SDS011;32017;43.700;11.820;2022-10-16T03:25:41;103.30;;;10.40;;
46282;SDS011;32017;43.700;11.820;2022-10-16T03:28:01;29.20;;;8.20;;
46282;SDS011;32017;43.700;11.820;2022-10-16T03:30:23;18.95;;;7.50;;
46282;SDS011;32017;43.700;11.820;2022-10-16T03:32:44;47.35;;;7.35;;
46282;SDS011;32017;43.700;11.820;2022-10-16T03:35:05;6.88;;;6.60;;
46282;SDS011;32017;43.700;11.820;2022-10-16T03:37:26;18.48;;;5.57;;
46282;SDS011;32017;43.700;11.820;2022-10-16T03:39:47;37.33;;;7.63;;
46282;SDS011;32017;43.700;11.820;2022-10-16T03:42:09;9.95;;;6.70;;
46282;SDS011;32017;43.700;11.820;2022-10-16T03:44:31;28.10;;;7.95;;
46282;SDS011;32017;43.700;11.820;2022-10-16T03:46:53;23.02;;;6.53;;
46282;SDS011;32017;43.700;11.820;2022-10-16T03:49:13;46.38;;;6.88;;
46282;SDS011;32017;43.700;11.820;2022-10-16T03:51:35;38.67;;;6.68;;
46282;SDS011;32017;43.700;11.820;2022-10-16T03:53:56;19.65;;;5.85;;
46282;SDS011;32017;43.700;11.820;2022-10-16T03:56:17;22.13;;;6.35;;
46282;SDS011;32017;43.700;11.820;2022-10-16T03:58:37;6.88;;;6.70;;
46282;SDS011;32017;43.700;11.820;2022-10-16T04:00:58;6.50;;;6.20;;
46282;SDS011;32017;43.700;11.820;2022-10-16T04:03:19;6.25;;;6.15;;
46282;SDS011;32017;43.700;11.820;2022-10-16T04:05:39;6.10;;;6.00;;
46282;SDS011;32017;43.700;11.820;2022-10-16T04:08:00;40.15;;;7.00;;
46282;SDS011;32017;43.700;11.820;2022-10-16T04:10:21;10.15;;;5.00;;
46282;SDS011;32017;43.700;11.820;2022-10-16T04:12:42;61.83;;;7.97;;
46282;SDS011;32017;43.700;11.820;2022-10-16T04:15:03;6.80;;;6.30;;
46282;SDS011;32017;43.700;11.820;2022-10-16T04:17:23;7.32;;;6.35;;
46282;SDS011;32017;43.700;11.820;2022-10-16T04:19:44;7.82;;;5.68;;
46282;SDS011;32017;43.700;11.820;2022-10-16T04:22:05;10.23;;;6.03;;
46282;SDS011;32017;43.700;11.820;2022-10-16T04:24:26;18.95;;;7.00;;
46282;SDS011;32017;43.700;11.820;2022-10-16T04:26:46;6.22;;;6.03;;
46282;SDS011;32017;43.700;11.820;2022-10-16T04:29:07;8.85;;;5.95;;
46282;SDS011;32017;43.700;11.820;2022-10-16T04:31:28;6.05;;;5.75;;
46282;SDS011;32017;43.700;11.820;2022-10-16T04:33:48;9.48;;;5.15;;
46282;SDS011;32017;43.700;11.820;2022-10-16T04:36:10;4.57;;;4.47;;
46282;SDS011;32017;43.700;11.820;2022-10-16T04:38:30;10.05;;;5.85;;
46282;SDS011;32017;43.700;11.820;2022-10-16T04:40:51;19.63;;;5.15;;
46282;SDS011;32017;43.700;11.820;2022-10-16T04:43:12;44.83;;;6.82;;
46282;SDS011;32017;43.700;11.820;2022-10-16T04:45:34;15.43;;;5.70;;
46282;SDS011;32017;43.700;11.820;2022-10-16T04:47:58;102.00;;;8.30;;
46282;SDS011;32017;43.700;11.820;2022-10-16T04:50:19;36.35;;;6.35;;
46282;SDS011;32017;43.700;11.820;2022-10-16T04:52:39;63.53;;;6.50;;
46282;SDS011;32017;43.700;11.820;2022-10-16T04:55:00;50.08;;;6.55;;
46282;SDS011;32017;43.700;11.820;2022-10-16T04:57:22;113.03;;;9.93;;
46282;SDS011;32017;43.700;11.820;2022-10-16T04:59:43;84.45;;;8.98;;
46282;SDS011;32017;43.700;11.820;2022-10-16T05:02:04;134.35;;;11.73;;
46282;SDS011;32017;43.700;11.820;2022-10-16T05:04:25;139.10;;;12.27;;
46282;SDS011;32017;43.700;11.820;2022-10-16T05:06:47;163.32;;;11.93;;
46282;SDS011;32017;43.700;11.820;2022-10-16T05:09:10;202.35;;;15.20;;
46282;SDS011;32017;43.700;11.820;2022-10-16T05:11:31;86.53;;;9.52;;
46282;SDS011;32017;43.700;11.820;2022-10-16T05:13:51;67.18;;;8.05;;
46282;SDS011;32017;43.700;11.820;2022-10-16T05:16:15;107.10;;;11.18;;
46282;SDS011;32017;43.700;11.820;2022-10-16T05:18:35;63.83;;;7.30;;
46282;SDS011;32017;43.700;11.820;2022-10-16T05:20:56;72.63;;;7.82;;
46282;SDS011;32017;43.700;11.820;2022-10-16T05:23:18;80.20;;;8.00;;
46282;SDS011;32017;43.700;11.820;2022-10-16T05:25:39;60.90;;;7.00;;
46282;SDS011;32017;43.700;11.820;2022-10-16T05:28:00;22.27;;;6.53;;
46282;SDS011;32017;43.700;11.820;2022-10-16T05:30:20;5.55;;;5.13;;
46282;SDS011;32017;43.700;11.820;2022-10-16T05:32:41;4.75;;;4.65;;
46282;SDS011;32017;43.700;11.820;2022-10-16T05:35:05;176.38;;;10.77;;
46282;SDS011;32017;43.700;11.820;2022-10-16T05:37:31;5.65;;;5.50;;
46282;SDS011;32017;43.700;11.820;2022-10-16T05:39:53;4.95;;;4.85;;
46282;SDS011;32017;43.700;11.820;2022-10-16T05:42:14;10.57;;;4.47;;
46282;SDS011;32017;43.700;11.820;2022-10-16T05:44:35;19.10;;;5.18;;
46282;SDS011;32017;43.700;11.820;2022-10-16T05:46:56;27.73;;;5.97;;
46282;SDS011;32017;43.700;11.820;2022-10-16T05:49:17;37.75;;;6.13;;
46282;SDS011;32017;43.700;11.820;2022-10-16T05:51:37;18.08;;;5.18;;
46282;SDS011;32017;43.700;11.820;2022-10-16T05:53:58;24.98;;;5.38;;
46282;SDS011;32017;43.700;11.820;2022-10-16T05:56:20;20.98;;;5.40;;
46282;SDS011;32017;43.700;11.820;2022-10-16T05:58:40;3.80;;;3.60;;
46282;SDS011;32017;43.700;11.820;2022-10-16T06:01:05;19.50;;;4.85;;
46282;SDS011;32017;43.700;11.820;2022-10-16T06:03:29;4.13;;;3.90;;
46282;SDS011;32017;43.700;11.820;2022-10-16T06:05:50;3.88;;;3.78;;
46282;SDS011;32017;43.700;11.820;2022-10-16T06:08:11;17.33;;;5.63;;
46282;SDS011;32017;43.700;11.820;2022-10-16T06:10:32;10.00;;;5.53;;
46282;SDS011;32017;43.700;11.820;2022-10-16T06:12:52;8.25;;;5.07;;
46282;SDS011;32017;43.700;11.820;2022-10-16T06:15:13;18.85;;;4.72;;
46282;SDS011;32017;43.700;11.820;2022-10-16T06:17:34;14.35;;;5.15;;
46282;SDS011;32017;43.700;11.820;2022-10-16T06:19:54;4.82;;;4.68;;
46282;SDS011;32017;43.700;11.820;2022-10-16T06:22:14;4.78;;;4.47;;
46282;SDS011;32017;43.700;11.820;2022-10-16T06:24:36;109.45;;;9.32;;
46282;SDS011;32017;43.700;11.820;2022-10-16T06:26:58;57.08;;;6.05;;
46282;SDS011;32017;43.700;11.820;2022-10-16T06:29:18;245.73;;;12.48;;
46282;SDS011;32017;43.700;11.820;2022-10-16T06:31:39;34.00;;;5.18;;
46282;SDS011;32017;43.700;11.820;2022-10-16T06:34:00;46.30;;;5.53;;
46282;SDS011;32017;43.700;11.820;2022-10-16T06:36:22;4.15;;;3.92;;
46282;SDS011;32017;43.700;11.820;2022-10-16T06:38:44;6.18;;;4.03;;
46282;SDS011;32017;43.700;11.820;2022-10-16T06:41:05;4.35;;;4.15;;
46282;SDS011;32017;43.700;11.820;2022-10-16T06:43:28;29.85;;;5.13;;
46282;SDS011;32017;43.700;11.820;2022-10-16T06:45:53;145.20;;;8.70;;
46282;SDS011;32017;43.700;11.820;2022-10-16T06:48:15;61.83;;;6.75;;
46282;SDS011;32017;43.700;11.820;2022-10-16T06:50:35;201.80;;;13.20;;
46282;SDS011;32017;43.700;11.820;2022-10-16T06:52:56;64.55;;;6.43;;
46282;SDS011;32017;43.700;11.820;2022-10-16T06:55:16;171.65;;;10.90;;
46282;SDS011;32017;43.700;11.820;2022-10-16T06:57:37;26.00;;;6.30;;
46282;SDS011;32017;43.700;11.820;2022-10-16T06:59:57;55.22;;;6.53;;
46282;SDS011;32017;43.700;11.820;2022-10-16T07:02:18;5.47;;;5.03;;
46282;SDS011;32017;43.700;11.820;2022-10-16T07:04:38;109.57;;;8.10;;
46282;SDS011;32017;43.700;11.820;2022-10-16T07:07:00;108.72;;;7.90;;
46282;SDS011;32017;43.700;11.820;2022-10-16T07:09:25;49.95;;;6.43;;
46282;SDS011;32017;43.700;11.820;2022-10-16T07:11:46;139.63;;;7.97;;
46282;SDS011;32017;43.700;11.820;2022-10-16T07:14:24;85.00;;;6.38;;
46282;SDS011;32017;43.700;11.820;2022-10-16T07:16:45;44.45;;;4.32;;
46282;SDS011;32017;43.700;11.820;2022-10-16T07:19:07;24.45;;;3.47;;
46282;SDS011;32017;43.700;11.820;2022-10-16T07:21:31;53.92;;;5.72;;
46282;SDS011;32017;43.700;11.820;2022-10-16T07:23:56;67.25;;;6.95;;
46282;SDS011;32017;43.700;11.820;2022-10-16T07:28:39;42.05;;;5.05;;
46282;SDS011;32017;43.700;11.820;2022-10-16T07:31:00;97.40;;;7.35;;
46282;SDS011;32017;43.700;11.820;2022-10-16T07:33:25;63.63;;;4.97;;
46282;SDS011;32017;43.700;11.820;2022-10-16T07:35:53;21.75;;;4.10;;
46282;SDS011;32017;43.700;11.820;2022-10-16T07:38:14;8.68;;;3.30;;
46282;SDS011;32017;43.700;11.820;2022-10-16T07:40:34;3.22;;;3.17;;
46282;SDS011;32017;43.700;11.820;2022-10-16T07:42:55;3.10;;;3.00;;
46282;SDS011;32017;43.700;11.820;2022-10-16T07:45:16;2.92;;;2.42;;
46282;SDS011;32017;43.700;11.820;2022-10-16T07:47:36;3.10;;;2.63;;
46282;SDS011;32017;43.700;11.820;2022-10-16T07:49:57;3.38;;;3.17;;
46282;SDS011;32017;43.700;11.820;2022-10-16T07:52:17;3.15;;;3.15;;
46282;SDS011;32017;43.700;11.820;2022-10-16T07:54:38;17.45;;;4.43;;
46282;SDS011;32017;43.700;11.820;2022-10-16T07:57:01;6.07;;;4.15;;
46282;SDS011;32017;43.700;11.820;2022-10-16T07:59:21;4.63;;;4.53;;
46282;SDS011;32017;43.700;11.820;2022-10-16T08:01:41;3.72;;;3.63;;
46282;SDS011;32017;43.700;11.820;2022-10-16T08:04:02;3.45;;;3.25;;
46282;SDS011;32017;43.700;11.820;2022-10-16T08:06:28;3.75;;;3.65;;
46282;SDS011;32017;43.700;11.820;2022-10-16T08:08:48;4.85;;;4.50;;
46282;SDS011;32017;43.700;11.820;2022-10-16T08:11:10;3.88;;;3.78;;
46282;SDS011;32017;43.700;11.820;2022-10-16T08:13:31;3.65;;;3.55;;
46282;SDS011;32017;43.700;11.820;2022-10-16T08:15:53;3.78;;;3.67;;
46282;SDS011;32017;43.700;11.820;2022-10-16T08:18:14;3.58;;;3.50;;
46282;SDS011;32017;43.700;11.820;2022-10-16T08:23:00;4.00;;;3.90;;
46282;SDS011;32017;43.700;11.820;2022-10-16T08:25:21;3.67;;;3.42;;
46282;SDS011;32017;43.700;11.820;2022-10-16T08:27:43;2.53;;;2.53;;
46282;SDS011;32017;43.700;11.820;2022-10-16T08:30:04;4.60;;;4.50;;
46282;SDS011;32017;43.700;11.820;2022-10-16T08:32:27;2.97;;;2.92;;
46282;SDS011;32017;43.700;11.820;2022-10-16T08:34:49;2.53;;;2.53;;
46282;SDS011;32017;43.700;11.820;2022-10-16T08:37:10;5.15;;;3.13;;
46282;SDS011;32017;43.700;11.820;2022-10-16T08:39:33;3.08;;;2.97;;
46282;SDS011;32017;43.700;11.820;2022-10-16T08:42:04;2.95;;;2.95;;
46282;SDS011;32017;43.700;11.820;2022-10-16T08:47:35;3.00;;;1.95;;
46282;SDS011;32017;43.700;11.820;2022-10-16T08:50:25;2.47;;;1.92;;
46282;SDS011;32017;43.700;11.820;2022-10-16T08:52:47;2.25;;;2.15;;
46282;SDS011;32017;43.700;11.820;2022-10-16T08:57:54;2.30;;;1.65;;
46282;SDS011;32017;43.700;11.820;2022-10-16T09:00:15;1.70;;;1.70;;
46282;SDS011;32017;43.700;11.820;2022-10-16T09:02:49;1.55;;;1.50;;
46282;SDS011;32017;43.700;11.820;2022-10-16T09:13:03;1.33;;;1.15;;
46282;SDS011;32017;43.700;11.820;2022-10-16T09:15:39;1.30;;;1.30;;
46282;SDS011;32017;43.700;11.820;2022-10-16T09:23:13;1.10;;;1.10;;
46282;SDS011;32017;43.700;11.820;2022-10-16T09:25:46;1.20;;;1.20;;
46282;SDS011;32017;43.700;11.820;2022-10-16T09:28:08;1.20;;;1.20;;
46282;SDS011;32017;43.700;11.820;2022-10-16T09:30:30;1.45;;;1.42;;
46282;SDS011;32017;43.700;11.820;2022-10-16T09:32:52;1.60;;;1.50;;
46282;SDS011;32017;43.700;11.820;2022-10-16T09:35:15;1.27;;;1.17;;
46282;SDS011;32017;43.700;11.820;2022-10-16T09:37:39;1.10;;;1.00;;
46282;SDS011;32017;43.700;11.820;2022-10-16T09:40:02;9.80;;;1.92;;
46282;SDS011;32017;43.700;11.820;2022-10-16T09:42:34;5.35;;;1.23;;
46282;SDS011;32017;43.700;11.820;2022-10-16T09:44:56;1.05;;;1.00;;
46282;SDS011;32017;43.700;11.820;2022-10-16T09:47:23;1.52;;;1.42;;
46282;SDS011;32017;43.700;11.820;2022-10-16T09:49:55;1.23;;;1.23;;
46282;SDS011;32017;43.700;11.820;2022-10-16T09:52:19;3.30;;;1.30;;
46282;SDS011;32017;43.700;11.820;2022-10-16T09:54:57;1.00;;;1.00;;
46282;SDS011;32017;43.700;11.820;2022-10-16T09:57:19;1.38;;;1.27;;
46282;SDS011;32017;43.700;11.820;2022-10-16T09:59:51;1.60;;;1.52;;
46282;SDS011;32017;43.700;11.820;2022-10-16T10:02:16;3.17;;;1.33;;
46282;SDS011;32017;43.700;11.820;2022-10-16T10:04:44;1.17;;;1.17;;
46282;SDS011;32017;43.700;11.820;2022-10-16T10:07:54;2.35;;;1.20;;
46282;SDS011;32017;43.700;11.820;2022-10-16T10:10:03;1.60;;;1.00;;
46282;SDS011;32017;43.700;11.820;2022-10-16T10:12:25;1.00;;;1.00;;
46282;SDS011;32017;43.700;11.820;2022-10-16T10:17:14;3.90;;;1.10;;
46282;SDS011;32017;43.700;11.820;2022-10-16T10:22:27;1.25;;;1.10;;
46282;SDS011;32017;43.700;11.820;2022-10-16T10:24:54;2.35;;;0.90;;
46282;SDS011;32017;43.700;11.820;2022-10-16T10:32:56;1.85;;;1.00;;
46282;SDS011;32017;43.700;11.820;2022-10-16T10:35:54;3.13;;;2.90;;
46282;SDS011;32017;43.700;11.820;2022-10-16T10:44:38;1.08;;;0.80;;
46282;SDS011;32017;43.700;11.820;2022-10-16T10:46:39;1.30;;;1.25;;
46282;SDS011;32017;43.700;11.820;2022-10-16T10:51:47;2.15;;;0.90;;
46282;SDS011;32017;43.700;11.820;2022-10-16T10:54:17;1.58;;;0.70;;
46282;SDS011;32017;43.700;11.820;2022-10-16T11:05:12;1.75;;;0.70;;
46282;SDS011;32017;43.700;11.820;2022-10-16T11:07:41;0.65;;;0.65;;
46282;SDS011;32017;43.700;11.820;2022-10-16T11:10:19;0.65;;;0.65;;
46282;SDS011;32017;43.700;11.820;2022-10-16T11:12:49;0.82;;;0.70;;
46282;SDS011;32017;43.700;11.820;2022-10-16T11:15:18;0.80;;;0.70;;
46282;SDS011;32017;43.700;11.820;2022-10-16T11:20:31;0.60;;;0.60;;
46282;SDS011;32017;43.700;11.820;2022-10-16T11:23:00;1.55;;;0.63;;
46282;SDS011;32017;43.700;11.820;2022-10-16T11:25:28;0.63;;;0.63;;
46282;SDS011;32017;43.700;11.820;2022-10-16T11:27:52;0.60;;;0.60;;
46282;SDS011;32017;43.700;11.820;2022-10-16T11:30:30;1.55;;;0.60;;
46282;SDS011;32017;43.700;11.820;2022-10-16T11:35:22;1.00;;;0.90;;
46282;SDS011;32017;43.700;11.820;2022-10-16T11:37:47;2.47;;;0.70;;
46282;SDS011;32017;43.700;11.820;2022-10-16T11:40:32;3.90;;;1.35;;
46282;SDS011;32017;43.700;11.820;2022-10-16T11:42:59;0.70;;;0.70;;
46282;SDS011;32017;43.700;11.820;2022-10-16T11:45:34;4.25;;;1.80;;
46282;SDS011;32017;43.700;11.820;2022-10-16T11:48:18;0.70;;;0.70;;
46282;SDS011;32017;43.700;11.820;2022-10-16T11:53:39;0.70;;;0.70;;
46282;SDS011;32017;43.700;11.820;2022-10-16T11:56:15;0.60;;;0.60;;
46282;SDS011;32017;43.700;11.820;2022-10-16T11:58:43;0.65;;;0.65;;
46282;SDS011;32017;43.700;11.820;2022-10-16T12:01:27;1.52;;;0.70;;
46282;SDS011;32017;43.700;11.820;2022-10-16T12:09:29;1.70;;;0.70;;
46282;SDS011;32017;43.700;11.820;2022-10-16T12:11:56;0.70;;;0.70;;
46282;SDS011;32017;43.700;11.820;2022-10-16T12:14:19;0.75;;;0.70;;
46282;SDS011;32017;43.700;11.820;2022-10-16T12:16:59;8.10;;;1.48;;
46282;SDS011;32017;43.700;11.820;2022-10-16T12:19:42;2.20;;;0.70;;
46282;SDS011;32017;43.700;11.820;2022-10-16T12:22:02;0.70;;;0.70;;
46282;SDS011;32017;43.700;11.820;2022-10-16T12:24:35;0.60;;;0.60;;
46282;SDS011;32017;43.700;11.820;2022-10-16T12:26:58;0.70;;;0.70;;
46282;SDS011;32017;43.700;11.820;2022-10-16T12:29:38;1.83;;;0.70;;
46282;SDS011;32017;43.700;11.820;2022-10-16T12:35:00;0.88;;;0.77;;
46282;SDS011;32017;43.700;11.820;2022-10-16T12:37:24;0.90;;;0.90;;
46282;SDS011;32017;43.700;11.820;2022-10-16T12:39:47;0.70;;;0.70;;
46282;SDS011;32017;43.700;11.820;2022-10-16T12:44:49;1.38;;;0.70;;
46282;SDS011;32017;43.700;11.820;2022-10-16T12:47:19;0.80;;;0.80;;
46282;SDS011;32017;43.700;11.820;2022-10-16T12:49:47;0.70;;;0.70;;
46282;SDS011;32017;43.700;11.820;2022-10-16T12:52:31;3.35;;;0.70;;
46282;SDS011;32017;43.700;11.820;2022-10-16T12:54:57;0.70;;;0.70;;
46282;SDS011;32017;43.700;11.820;2022-10-16T13:00:10;1.00;;;0.80;;
46282;SDS011;32017;43.700;11.820;2022-10-16T13:07:55;0.70;;;0.70;;
46282;SDS011;32017;43.700;11.820;2022-10-16T13:10:53;0.82;;;0.73;;
46282;SDS011;32017;43.700;11.820;2022-10-16T13:23:56;1.73;;;0.80;;
46282;SDS011;32017;43.700;11.820;2022-10-16T13:26:35;0.60;;;0.60;;
46282;SDS011;32017;43.700;11.820;2022-10-16T13:29:31;0.70;;;0.70;;
46282;SDS011;32017;43.700;11.820;2022-10-16T13:31:52;1.20;;;0.80;;
46282;SDS011;32017;43.700;11.820;2022-10-16T13:34:14;1.20;;;0.70;;
46282;SDS011;32017;43.700;11.820;2022-10-16T13:36:48;0.70;;;0.70;;
46282;SDS011;32017;43.700;11.820;2022-10-16T13:39:27;0.70;;;0.70;;
46282;SDS011;32017;43.700;11.820;2022-10-16T13:44:28;0.70;;;0.70;;
46282;SDS011;32017;43.700;11.820;2022-10-16T13:47:01;0.60;;;0.60;;
46282;SDS011;32017;43.700;11.820;2022-10-16T13:49:21;4.63;;;0.90;;
46282;SDS011;32017;43.700;11.820;2022-10-16T13:51:53;0.98;;;0.70;;
46282;SDS011;32017;43.700;11.820;2022-10-16T13:54:15;0.60;;;0.60;;
46282;SDS011;32017;43.700;11.820;2022-10-16T13:56:35;0.77;;;0.70;;
46282;SDS011;32017;43.700;11.820;2022-10-16T13:59:06;0.60;;;0.60;;
46282;SDS011;32017;43.700;11.820;2022-10-16T14:01:44;0.70;;;0.70;;
46282;SDS011;32017;43.700;11.820;2022-10-16T14:04:05;2.67;;;0.80;;
46282;SDS011;32017;43.700;11.820;2022-10-16T14:06:29;4.22;;;0.80;;
46282;SDS011;32017;43.700;11.820;2022-10-16T14:08:50;0.70;;;0.70;;
46282;SDS011;32017;43.700;11.820;2022-10-16T14:11:42;0.95;;;0.80;;
46282;SDS011;32017;43.700;11.820;2022-10-16T14:14:10;0.68;;;0.68;;
46282;SDS011;32017;43.700;11.820;2022-10-16T14:16:33;0.70;;;0.70;;
46282;SDS011;32017;43.700;11.820;2022-10-16T14:21:19;0.70;;;0.70;;
46282;SDS011;32017;43.700;11.820;2022-10-16T14:23:42;1.48;;;0.70;;
46282;SDS011;32017;43.700;11.820;2022-10-16T14:28:30;0.85;;;0.80;;
46282;SDS011;32017;43.700;11.820;2022-10-16T14:36:24;1.45;;;0.85;;
46282;SDS011;32017;43.700;11.820;2022-10-16T14:38:38;0.95;;;0.77;;
46282;SDS011;32017;43.700;11.820;2022-10-16T14:41:00;1.52;;;0.70;;
46282;SDS011;32017;43.700;11.820;2022-10-16T14:43:29;9.73;;;0.80;;
46282;SDS011;32017;43.700;11.820;2022-10-16T14:45:56;0.77;;;0.77;;
46282;SDS011;32017;43.700;11.820;2022-10-16T14:48:17;0.80;;;0.80;;
46282;SDS011;32017;43.700;11.820;2022-10-16T14:50:39;1.48;;;0.88;;
46282;SDS011;32017;43.700;11.820;2022-10-16T14:53:00;0.95;;;0.90;;
46282;SDS011;32017;43.700;11.820;2022-10-16T14:55:21;0.90;;;0.90;;
46282;SDS011;32017;43.700;11.820;2022-10-16T14:57:44;0.90;;;0.90;;
46282;SDS011;32017;43.700;11.820;2022-10-16T15:02:39;1.88;;;1.35;;
46282;SDS011;32017;43.700;11.820;2022-10-16T15:07:52;1.65;;;0.80;;
46282;SDS011;32017;43.700;11.820;2022-10-16T15:10:16;0.82;;;0.82;;
46282;SDS011;32017;43.700;11.820;2022-10-16T15:12:38;1.27;;;1.10;;
46282;SDS011;32017;43.700;11.820;2022-10-16T15:15:00;0.70;;;0.70;;
46282;SDS011;32017;43.700;11.820;2022-10-16T15:17:21;0.93;;;0.93;;
46282;SDS011;32017;43.700;11.820;2022-10-16T15:19:42;0.73;;;0.73;;
46282;SDS011;32017;43.700;11.820;2022-10-16T15:22:03;1.10;;;0.80;;
46282;SDS011;32017;43.700;11.820;2022-10-16T15:24:24;1.00;;;0.80;;
46282;SDS011;32017;43.700;11.820;2022-10-16T15:26:44;0.90;;;0.80;;
46282;SDS011;32017;43.700;11.820;2022-10-16T15:29:09;0.70;;;0.70;;
46282;SDS011;32017;43.700;11.820;2022-10-16T15:31:29;0.80;;;0.80;;
46282;SDS011;32017;43.700;11.820;2022-10-16T15:33:51;1.85;;;0.88;;
46282;SDS011;32017;43.700;11.820;2022-10-16T15:36:16;1.08;;;0.80;;
46282;SDS011;32017;43.700;11.820;2022-10-16T15:38:36;1.13;;;0.73;;
46282;SDS011;32017;43.700;11.820;2022-10-16T15:40:56;0.88;;;0.80;;
46282;SDS011;32017;43.700;11.820;2022-10-16T15:43:17;3.28;;;0.80;;
46282;SDS011;32017;43.700;11.820;2022-10-16T15:45:38;2.25;;;0.80;;
46282;SDS011;32017;43.700;11.820;2022-10-16T15:48:00;0.80;;;0.80;;
46282;SDS011;32017;43.700;11.820;2022-10-16T15:50:21;0.85;;;0.80;;
46282;SDS011;32017;43.700;11.820;2022-10-16T15:52:41;1.38;;;0.90;;
46282;SDS011;32017;43.700;11.820;2022-10-16T15:55:02;0.93;;;0.90;;
46282;SDS011;32017;43.700;11.820;2022-10-16T15:57:23;1.00;;;1.00;;
46282;SDS011;32017;43.700;11.820;2022-10-16T15:59:44;1.08;;;1.02;;
46282;SDS011;32017;43.700;11.820;2022-10-16T16:02:04;1.95;;;0.90;;
46282;SDS011;32017;43.700;11.820;2022-10-16T16:04:25;1.05;;;0.90;;
46282;SDS011;32017;43.700;11.820;2022-10-16T16:07:04;2.70;;;1.27;;
46282;SDS011;32017;43.700;11.820;2022-10-16T16:09:31;0.90;;;0.90;;
46282;SDS011;32017;43.700;11.820;2022-10-16T16:11:51;1.50;;;0.88;;
46282;SDS011;32017;43.700;11.820;2022-10-16T16:14:12;1.75;;;0.90;;
46282;SDS011;32017;43.700;11.820;2022-10-16T16:16:36;0.90;;;0.90;;